Weather at Oslo Heliport, Ullevaal

Public forecast

Using degrees Celsius for public forecast. Weather courtesy of forecast.io.

Closest aviation weather report (METAR) to Oslo Heliport, Ullevaal

Closest report is Oslo Airport, Gardermoen, 18.9 nm (35.1 km) NE.

2024/05/26 17:50 (retrieved 26 minutes ago)

ENGM 261750Z 13014KT 9999 FEW050TCU SCT065 24/09 Q1019 NOSIG

Closest aviation forecast (TAF) to Oslo Heliport, Ullevaal

Closest forecast is Oslo Airport, Gardermoen, 18.9 nm (35.1 km) NE.

2024/05/26 18:00 Correction (retrieved 16 minutes ago)

TAF COR ENGM 261700Z 2618/2718 16008KT 9999 FEW040TCU TEMPO 2618/2718 SHRA SCT040CB PROB30 2618/2621 16015G28KT 4000 TS PROB30 2702/2708 BKN010